首页
METAR-TAF:

METAR-TAF

机场 :

潘狄頓區域機場

Penticton, 不列颠哥伦比亚, 加拿大

纬度: 49-28N, 经度: 119-36W, 海拔: 344米

当前天气观测

该预报发布于49分钟前的01:00 UTC
风速6节,风向,在北转西北东转东北之间变化
温度 36°C
湿度 19%
气压 1009 hPa
能見度: 24.1公里
少量云层高于11000英尺

METAR: CYYF 150100Z 36006KT 340V070 15SM FEW110 36/09 A2980 RMK AC1 AC TR SLP086 DENSITY ALT 3900FT

时间: 18:49 (01:49 UTC)

预报

该预报发布于1小时和9分钟前的00:40 UTC
预报有效从15日的 01点(UTC)到 15日的 13点(UTC)
风速8节,风向
能見度: 10公里
少量云层高于9000英尺
成为
从 15日的 06点(UTC)到 15日的 08点(UTC)
风速3节,风向多变

TAF: CYYF 150040Z 1501/1513 36008KT P6SM FEW090 BECMG 1506/1508 VRB03KT RMK NXT FCST BY 150700Z

超过4000个机场的气象观测和天气预报(METAR&TAF报告)。

可查询的气象台以黄色和红色小点在地图上表示。

将鼠标移到小点上方,可查看气象台名称。

然后点击查看天气观测和预报。

如需切换地图:点击带黑十字的绿色按钮放大地图;点击带横线的绿色按钮缩小地图;或者点击绿色箭头查看邻近地区的地图。


METAR-TAF: